Time;durP1;ratioP1;P1;durP2;ratioP2;P2;SDS_P1;SDS_P2;PMS_P1;PMS_P2;Temp;Humidity;BMP_temperature;BMP_pressure;BME280_temperature;BME280_humidity;BME280_pressure;Samples;Min_cycle;Max_cycle;Signal;HPM_P1;HPM_P2
2022/11/26 00:01:36;;;;;;;8.15;3.00;;;;;;;;;;4995071;28;20417;-81
2022/11/26 00:04:02;;;;;;;10.43;3.03;;;;;;;;;;4995086;28;20117;-82
2022/11/26 00:06:30;;;;;;;6.35;2.80;;;;;;;;;;4993716;28;20504;-81
2022/11/26 00:08:55;;;;;;;8.63;2.80;;;;;;;;;;4993871;28;20030;-81
2022/11/26 00:11:21;;;;;;;8.80;3.13;;;;;;;;;;4993345;28;20035;-81
2022/11/26 00:13:46;;;;;;;6.72;2.60;;;;;;;;;;4993751;28;20080;-82
2022/11/26 00:16:12;;;;;;;6.85;2.70;;;;;;;;;;4993570;28;20482;-80
2022/11/26 00:18:38;;;;;;;4.80;2.40;;;;;;;;;;4993294;28;20024;-81
2022/11/26 00:21:05;;;;;;;6.90;2.40;;;;;;;;;;4977602;28;20026;-81
2022/11/26 00:23:30;;;;;;;6.00;2.50;;;;;;;;;;4993143;28;20030;-81
2022/11/26 00:25:58;;;;;;;8.73;2.97;;;;;;;;;;4993126;28;20108;-81
2022/11/26 00:28:32;;;;;;;7.90;2.65;;;;;;;;;;4993086;28;20030;-81
2022/11/26 00:31:00;;;;;;;;;;;;;;;;;;5009849;28;20034;-80
2022/11/26 00:33:26;;;;;;;10.13;2.90;;;;;;;;;;4993111;28;19942;-82
2022/11/26 00:35:58;;;;;;;5.95;2.63;;;;;;;;;;4993932;28;20070;-81
2022/11/26 00:38:24;;;;;;;9.23;2.80;;;;;;;;;;4994375;28;20022;-81
2022/11/26 00:40:49;;;;;;;9.45;2.90;;;;;;;;;;4993118;28;20121;-80
2022/11/26 00:43:15;;;;;;;10.27;2.58;;;;;;;;;;4993748;28;20066;-81
2022/11/26 00:45:41;;;;;;;8.23;2.80;;;;;;;;;;4976831;28;20495;-81
2022/11/26 00:48:07;;;;;;;6.57;2.75;;;;;;;;;;4993085;28;20113;-81
2022/11/26 00:50:45;;;;;;;5.07;2.30;;;;;;;;;;4994546;28;20054;-81
2022/11/26 00:53:16;;;;;;;8.85;2.55;;;;;;;;;;4993004;28;20090;-82
2022/11/26 00:55:44;;;;;;;6.07;2.60;;;;;;;;;;4992944;28;20026;-81
2022/11/26 00:58:29;;;;;;;8.20;3.08;;;;;;;;;;4993004;28;20058;-82
2022/11/26 01:00:56;;;;;;;6.32;2.60;;;;;;;;;;4992930;28;20109;-81
2022/11/26 01:03:22;;;;;;;8.40;2.97;;;;;;;;;;4992581;28;20416;-81
2022/11/26 01:05:52;;;;;;;6.68;3.08;;;;;;;;;;4976416;28;20125;-81
2022/11/26 01:08:33;;;;;;;5.10;2.30;;;;;;;;;;4992897;28;20049;-82
2022/11/26 01:10:59;;;;;;;4.85;2.38;;;;;;;;;;4992528;28;20022;-82
2022/11/26 01:13:25;;;;;;;6.78;2.60;;;;;;;;;;4994352;28;20113;-82
2022/11/26 01:15:51;;;;;;;7.95;3.13;;;;;;;;;;4992516;28;20129;-81
2022/11/26 01:18:19;;;;;;;7.53;3.17;;;;;;;;;;5008812;28;20499;-81
2022/11/26 01:20:45;;;;;;;7.38;2.60;;;;;;;;;;5008754;28;20413;-81
2022/11/26 01:23:13;;;;;;;7.07;2.53;;;;;;;;;;4992282;28;20026;-81
2022/11/26 01:25:38;;;;;;;8.02;2.90;;;;;;;;;;4992453;28;20488;-80
2022/11/26 01:28:04;;;;;;;4.88;2.50;;;;;;;;;;4992361;28;20034;-81
2022/11/26 01:30:31;;;;;;;7.05;2.70;;;;;;;;;;4992470;28;20049;-81
2022/11/26 01:32:59;;;;;;;5.93;2.70;;;;;;;;;;5008691;28;20401;-81
2022/11/26 01:35:26;;;;;;;7.32;2.67;;;;;;;;;;4992669;28;20489;-82
2022/11/26 01:37:51;;;;;;;8.80;2.90;;;;;;;;;;5008607;28;20038;-81
2022/11/26 01:40:38;;;;;;;6.45;2.63;;;;;;;;;;4992336;28;20042;-81
2022/11/26 01:43:10;;;;;;;6.68;2.50;;;;;;;;;;4993255;28;20552;-82
2022/11/26 01:45:36;;;;;;;6.68;2.83;;;;;;;;;;4992795;28;20105;-82
2022/11/26 01:48:19;;;;;;;6.82;2.88;;;;;;;;;;4993105;28;20436;-81
2022/11/26 01:51:05;;;;;;;8.77;2.63;;;;;;;;;;4992549;28;20023;-81
2022/11/26 01:53:41;;;;;;;5.70;2.60;;;;;;;;;;4992796;28;20492;-81
2022/11/26 01:56:15;;;;;;;12.65;2.97;;;;;;;;;;4992171;28;20116;-81
2022/11/26 01:58:42;;;;;;;;;;;;;;;;;;4993180;28;20381;-79
2022/11/26 02:01:08;;;;;;;6.30;2.40;;;;;;;;;;4992297;28;19916;-81
2022/11/26 02:03:39;;;;;;;6.13;2.70;;;;;;;;;;4992331;28;20453;-81
2022/11/26 02:06:09;;;;;;;10.20;2.90;;;;;;;;;;4975938;28;20508;-80
2022/11/26 02:08:35;;;;;;;6.97;2.80;;;;;;;;;;4992210;28;20440;-80
2022/11/26 02:11:21;;;;;;;9.23;3.10;;;;;;;;;;4992354;28;20027;-81
2022/11/26 02:13:50;;;;;;;6.50;2.53;;;;;;;;;;4992404;28;20030;-81
2022/11/26 02:16:22;;;;;;;7.78;3.13;;;;;;;;;;4992037;28;20084;-81
2022/11/26 02:18:56;;;;;;;5.93;2.60;;;;;;;;;;4993710;28;20023;-81
2022/11/26 02:21:24;;;;;;;;;;;;;;;;;;4996026;28;20329;-80
2022/11/26 02:24:32;;;;;;;7.07;2.65;;;;;;;;;;4995719;28;19916;-81
2022/11/26 02:27:16;;;;;;;8.32;3.35;;;;;;;;;;4985600;28;20069;-81
2022/11/26 02:30:03;;;;;;;6.47;2.75;;;;;;;;;;4996448;28;20433;-80
2022/11/26 02:32:57;;;;;;;6.68;2.40;;;;;;;;;;4995011;28;20026;-80
2022/11/26 02:35:28;;;;;;;5.88;2.58;;;;;;;;;;4996756;28;20030;-80
2022/11/26 02:37:57;;;;;;;5.72;2.60;;;;;;;;;;4997095;28;20335;-80
2022/11/26 02:40:23;;;;;;;5.03;2.60;;;;;;;;;;4995388;28;20081;-81
2022/11/26 02:42:48;;;;;;;9.48;3.10;;;;;;;;;;4994818;28;20132;-80
2022/11/26 02:45:17;;;;;;;3.75;2.17;;;;;;;;;;4994913;28;20042;-80
2022/11/26 02:47:45;;;;;;;4.70;2.58;;;;;;;;;;4994951;28;20077;-80
2022/11/26 02:50:34;;;;;;;6.63;2.55;;;;;;;;;;4994921;28;20150;-80
2022/11/26 02:53:00;;;;;;;8.77;2.80;;;;;;;;;;4995509;28;20143;-81
2022/11/26 02:55:30;;;;;;;7.20;2.85;;;;;;;;;;4978549;28;20414;-81
2022/11/26 02:57:55;;;;;;;7.88;2.97;;;;;;;;;;4996215;28;20030;-81
2022/11/26 03:00:21;;;;;;;5.57;2.63;;;;;;;;;;4995309;28;20034;-81
2022/11/26 03:02:55;;;;;;;4.97;2.50;;;;;;;;;;4995151;28;20027;-80
2022/11/26 03:05:21;;;;;;;7.38;3.00;;;;;;;;;;4994850;28;20385;-80
2022/11/26 03:07:48;;;;;;;7.38;2.50;;;;;;;;;;4994607;28;20041;-79
2022/11/26 03:10:14;;;;;;;7.38;2.92;;;;;;;;;;4995172;28;20022;-80
2022/11/26 03:12:39;;;;;;;8.48;3.40;;;;;;;;;;4994410;28;20470;-80
2022/11/26 03:15:06;;;;;;;5.20;2.60;;;;;;;;;;4994639;28;20100;-81
2022/11/26 03:17:31;;;;;;;7.03;2.83;;;;;;;;;;4994461;28;20035;-80
2022/11/26 03:19:57;;;;;;;6.82;2.60;;;;;;;;;;4994617;28;20030;-81
2022/11/26 03:22:22;;;;;;;7.40;2.97;;;;;;;;;;5010793;28;20038;-80
2022/11/26 03:24:47;;;;;;;5.63;2.80;;;;;;;;;;4994232;28;20035;-80
2022/11/26 03:27:13;;;;;;;7.07;3.13;;;;;;;;;;4994532;28;20038;-80
2022/11/26 03:29:38;;;;;;;10.02;3.42;;;;;;;;;;4992991;28;20046;-80
2022/11/26 03:32:04;;;;;;;8.73;2.88;;;;;;;;;;4994246;28;20033;-80
2022/11/26 03:34:29;;;;;;;6.70;2.92;;;;;;;;;;4994576;28;20389;-80
2022/11/26 03:36:54;;;;;;;8.40;3.30;;;;;;;;;;4978153;28;20046;-80
2022/11/26 03:39:20;;;;;;;10.38;2.95;;;;;;;;;;5010288;28;20034;-80
2022/11/26 03:41:45;;;;;;;5.72;2.80;;;;;;;;;;4994124;28;20556;-80
2022/11/26 03:44:11;;;;;;;8.48;3.20;;;;;;;;;;4995178;28;20043;-81
2022/11/26 03:46:37;;;;;;;7.40;2.78;;;;;;;;;;5010080;28;20465;-81
2022/11/26 03:49:02;;;;;;;8.20;2.85;;;;;;;;;;4977700;28;20038;-80
2022/11/26 03:51:27;;;;;;;6.03;3.13;;;;;;;;;;4995292;28;20061;-81
2022/11/26 03:53:53;;;;;;;6.05;2.88;;;;;;;;;;4993817;28;20034;-81
2022/11/26 03:56:18;;;;;;;7.95;3.50;;;;;;;;;;4995470;28;20118;-81
2022/11/26 03:58:43;;;;;;;9.05;3.42;;;;;;;;;;4993653;28;20023;-80
2022/11/26 04:01:10;;;;;;;7.88;3.22;;;;;;;;;;5009868;28;20034;-81
2022/11/26 04:03:36;;;;;;;8.43;3.10;;;;;;;;;;4993443;28;20022;-80
2022/11/26 04:06:01;;;;;;;7.43;2.85;;;;;;;;;;5010087;28;20030;-80
2022/11/26 04:08:27;;;;;;;6.45;3.30;;;;;;;;;;4995108;28;20118;-80
2022/11/26 04:10:52;;;;;;;5.15;2.85;;;;;;;;;;4993518;28;20034;-80
2022/11/26 04:13:17;;;;;;;7.40;3.30;;;;;;;;;;4993312;28;20026;-80
2022/11/26 04:15:43;;;;;;;5.95;3.17;;;;;;;;;;4977059;28;20038;-80
2022/11/26 04:18:08;;;;;;;9.27;3.03;;;;;;;;;;4993300;28;20525;-80
2022/11/26 04:20:34;;;;;;;7.32;2.97;;;;;;;;;;4993465;28;20037;-80
2022/11/26 04:22:59;;;;;;;9.18;3.25;;;;;;;;;;4993146;28;20150;-80
2022/11/26 04:25:25;;;;;;;12.27;3.67;;;;;;;;;;4994655;28;20041;-80
2022/11/26 04:27:50;;;;;;;7.93;3.17;;;;;;;;;;4994457;28;20030;-80
2022/11/26 04:30:16;;;;;;;9.32;3.50;;;;;;;;;;4992952;28;20035;-80
2022/11/26 04:32:41;;;;;;;9.57;3.50;;;;;;;;;;4976934;28;20035;-80
2022/11/26 04:35:07;;;;;;;7.20;2.72;;;;;;;;;;4992950;28;20041;-80
2022/11/26 04:37:33;;;;;;;5.05;2.80;;;;;;;;;;4993333;28;20034;-80
2022/11/26 04:39:58;;;;;;;8.65;3.63;;;;;;;;;;4992875;28;20384;-80
2022/11/26 04:42:24;;;;;;;6.78;3.17;;;;;;;;;;5008734;28;20053;-80
2022/11/26 04:44:49;;;;;;;12.73;3.63;;;;;;;;;;4994608;28;20045;-80
2022/11/26 04:47:14;;;;;;;6.72;3.28;;;;;;;;;;5009189;28;20045;-80
2022/11/26 04:49:40;;;;;;;7.35;3.22;;;;;;;;;;4992788;28;20085;-80
2022/11/26 04:52:05;;;;;;;8.45;3.38;;;;;;;;;;5009007;28;20062;-81
2022/11/26 04:54:31;;;;;;;9.43;3.00;;;;;;;;;;4992692;28;20103;-80
2022/11/26 04:56:56;;;;;;;8.23;3.47;;;;;;;;;;4994313;28;20114;-80
2022/11/26 04:59:21;;;;;;;8.23;2.78;;;;;;;;;;4976963;28;20038;-80
2022/11/26 05:01:47;;;;;;;6.78;3.50;;;;;;;;;;4994070;28;20053;-80
2022/11/26 05:04:12;;;;;;;6.47;2.90;;;;;;;;;;4994215;28;20057;-80
2022/11/26 05:06:37;;;;;;;5.85;2.90;;;;;;;;;;4992412;28;20084;-80
2022/11/26 05:09:03;;;;;;;6.13;3.05;;;;;;;;;;4993883;28;20497;-80
2022/11/26 05:11:28;;;;;;;8.10;3.13;;;;;;;;;;4976300;28;20370;-80
2022/11/26 05:13:53;;;;;;;8.20;3.22;;;;;;;;;;4994220;28;20377;-81
2022/11/26 05:16:19;;;;;;;10.18;3.42;;;;;;;;;;4992331;28;20030;-80
2022/11/26 05:18:44;;;;;;;9.85;3.08;;;;;;;;;;4992369;28;20048;-80
2022/11/26 05:21:09;;;;;;;8.10;2.97;;;;;;;;;;4992733;28;20038;-80
2022/11/26 05:23:35;;;;;;;7.40;3.10;;;;;;;;;;4992264;28;20038;-80
2022/11/26 05:26:00;;;;;;;8.20;3.08;;;;;;;;;;5008621;28;20450;-80
2022/11/26 05:28:26;;;;;;;9.38;3.58;;;;;;;;;;4992599;28;20022;-80
2022/11/26 05:30:58;;;;;;;6.63;2.72;;;;;;;;;;4992808;28;20026;-81
2022/11/26 05:33:24;;;;;;;6.13;3.33;;;;;;;;;;4992401;28;20050;-81
2022/11/26 05:35:49;;;;;;;8.05;4.00;;;;;;;;;;5009454;28;20034;-80
2022/11/26 05:38:14;;;;;;;8.57;4.20;;;;;;;;;;4993895;28;20030;-78
2022/11/26 05:40:40;;;;;;;8.57;4.97;;;;;;;;;;4993702;28;20031;-79
2022/11/26 05:43:05;;;;;;;8.05;5.13;;;;;;;;;;4991807;28;20086;-80
2022/11/26 05:45:31;;;;;;;10.52;5.45;;;;;;;;;;4993359;28;20038;-80
2022/11/26 05:47:56;;;;;;;12.55;5.72;;;;;;;;;;4992597;28;20038;-80
2022/11/26 05:50:21;;;;;;;10.15;5.53;;;;;;;;;;4992334;28;20041;-80
2022/11/26 05:52:47;;;;;;;10.68;5.38;;;;;;;;;;4992691;28;20430;-79
2022/11/26 05:55:12;;;;;;;11.65;5.95;;;;;;;;;;4996334;28;20046;-80
2022/11/26 05:57:37;;;;;;;9.80;5.18;;;;;;;;;;4995609;28;20030;-80
2022/11/26 06:00:04;;;;;;;10.05;5.75;;;;;;;;;;4995782;28;20034;-80
2022/11/26 06:02:29;;;;;;;9.80;4.72;;;;;;;;;;4995975;28;20112;-80
2022/11/26 06:04:55;;;;;;;9.60;5.20;;;;;;;;;;4997163;28;20465;-80
2022/11/26 06:07:20;;;;;;;11.65;5.10;;;;;;;;;;5013427;28;20030;-81
2022/11/26 06:09:46;;;;;;;6.82;4.80;;;;;;;;;;4997626;28;20030;-81
2022/11/26 06:12:11;;;;;;;13.43;4.43;;;;;;;;;;4998084;28;20038;-81
2022/11/26 06:14:36;;;;;;;12.05;4.55;;;;;;;;;;4996745;28;20067;-81
2022/11/26 06:17:02;;;;;;;8.73;4.60;;;;;;;;;;4996522;28;20033;-79
2022/11/26 06:19:27;;;;;;;12.45;4.85;;;;;;;;;;4998943;28;20038;-79
2022/11/26 06:21:52;;;;;;;7.78;4.00;;;;;;;;;;4997247;28;20034;-79
2022/11/26 06:24:18;;;;;;;8.52;4.22;;;;;;;;;;4995950;28;20474;-79
2022/11/26 06:26:43;;;;;;;9.48;3.95;;;;;;;;;;5005564;28;20057;-79
2022/11/26 06:29:08;;;;;;;7.95;4.30;;;;;;;;;;4994980;28;20035;-80
2022/11/26 06:31:34;;;;;;;7.28;3.83;;;;;;;;;;4995470;28;20034;-80
2022/11/26 06:33:59;;;;;;;10.43;4.30;;;;;;;;;;4996579;28;20038;-78
2022/11/26 06:36:26;;;;;;;9.13;4.20;;;;;;;;;;4995143;28;20128;-79
2022/11/26 06:38:51;;;;;;;8.00;3.60;;;;;;;;;;4996770;28;20026;-81
2022/11/26 06:41:17;;;;;;;7.05;4.07;;;;;;;;;;5010886;28;20037;-79
2022/11/26 06:43:42;;;;;;;8.05;3.65;;;;;;;;;;4996026;28;20473;-79
2022/11/26 06:46:09;;;;;;;7.45;4.07;;;;;;;;;;4995283;28;20042;-78
2022/11/26 06:48:36;;;;;;;7.47;4.10;;;;;;;;;;4978820;28;20066;-81
2022/11/26 06:51:04;;;;;;;12.05;4.32;;;;;;;;;;4994715;28;20026;-81
2022/11/26 06:53:29;;;;;;;10.10;4.15;;;;;;;;;;4994974;28;20026;-79
2022/11/26 06:56:01;;;;;;;9.68;4.22;;;;;;;;;;4994642;28;20099;-79
2022/11/26 06:58:27;;;;;;;13.60;4.47;;;;;;;;;;4995010;28;20049;-80
2022/11/26 07:00:53;;;;;;;16.42;4.13;;;;;;;;;;4996152;28;20477;-80
2022/11/26 07:03:18;;;;;;;18.35;4.97;;;;;;;;;;4978650;28;20042;-81
2022/11/26 07:05:44;;;;;;;8.50;4.32;;;;;;;;;;4978253;28;20050;-80
2022/11/26 07:08:09;;;;;;;14.77;4.28;;;;;;;;;;4994236;28;20038;-81
2022/11/26 07:10:34;;;;;;;20.05;4.47;;;;;;;;;;4994482;28;20379;-80
2022/11/26 07:13:00;;;;;;;14.75;4.68;;;;;;;;;;4995761;28;20034;-80
2022/11/26 07:15:25;;;;;;;14.82;3.95;;;;;;;;;;4994444;28;20030;-80
2022/11/26 07:17:51;;;;;;;12.88;4.68;;;;;;;;;;4995366;28;20057;-80
2022/11/26 07:20:16;;;;;;;14.10;5.40;;;;;;;;;;4993834;28;20437;-81
2022/11/26 07:22:42;;;;;;;20.65;5.90;;;;;;;;;;4994423;28;20030;-81
2022/11/26 07:25:07;;;;;;;16.42;4.97;;;;;;;;;;4994209;28;20397;-80
2022/11/26 07:27:33;;;;;;;21.65;5.30;;;;;;;;;;4977645;28;20037;-81
2022/11/26 07:29:58;;;;;;;20.35;5.20;;;;;;;;;;4993741;28;20030;-81
2022/11/26 07:32:23;;;;;;;14.13;5.18;;;;;;;;;;4993146;28;20034;-81
2022/11/26 07:34:49;;;;;;;15.63;5.15;;;;;;;;;;4993063;28;20134;-82
2022/11/26 07:37:15;;;;;;;15.82;5.72;;;;;;;;;;5009797;28;20038;-82
2022/11/26 07:39:41;;;;;;;17.15;5.10;;;;;;;;;;4994666;28;20040;-81
2022/11/26 07:42:06;;;;;;;17.02;6.57;;;;;;;;;;4994373;28;20104;-80
2022/11/26 07:44:31;;;;;;;22.52;5.82;;;;;;;;;;4992660;28;20056;-79
2022/11/26 07:46:57;;;;;;;18.05;6.00;;;;;;;;;;4994192;28;20034;-80
2022/11/26 07:49:22;;;;;;;16.05;5.90;;;;;;;;;;4994492;28;20062;-81
2022/11/26 07:51:48;;;;;;;14.68;5.18;;;;;;;;;;4993814;28;20026;-81
2022/11/26 07:54:13;;;;;;;15.40;5.68;;;;;;;;;;4994162;28;20481;-79
2022/11/26 07:56:38;;;;;;;28.05;6.05;;;;;;;;;;4997616;28;20116;-80
2022/11/26 07:59:04;;;;;;;27.48;6.65;;;;;;;;;;4994826;28;20101;-80
2022/11/26 08:01:30;;;;;;;24.05;7.10;;;;;;;;;;4995955;28;20026;-79
2022/11/26 08:03:56;;;;;;;28.75;7.65;;;;;;;;;;5001673;28;20065;-79
2022/11/26 08:06:24;;;;;;;21.00;7.72;;;;;;;;;;4997352;28;20149;-79
2022/11/26 08:08:49;;;;;;;25.08;7.28;;;;;;;;;;4997729;28;20409;-79
2022/11/26 08:11:23;;;;;;;27.38;7.47;;;;;;;;;;5011535;28;20042;-79
2022/11/26 08:13:52;;;;;;;;;;;;;;;;;;4996520;28;20026;-79
2022/11/26 08:16:17;;;;;;;18.85;6.32;;;;;;;;;;5010297;28;19914;-80
2022/11/26 08:18:43;;;;;;;24.00;6.88;;;;;;;;;;4995057;28;20033;-80
2022/11/26 08:21:08;;;;;;;30.75;7.00;;;;;;;;;;4995453;28;20041;-81
2022/11/26 08:23:34;;;;;;;16.15;6.07;;;;;;;;;;4995295;28;20046;-81
2022/11/26 08:26:10;;;;;;;17.38;7.15;;;;;;;;;;5010756;28;20026;-81
2022/11/26 08:28:36;;;;;;;18.15;6.78;;;;;;;;;;4995496;28;20023;-79
2022/11/26 08:31:03;;;;;;;15.57;6.28;;;;;;;;;;5011197;28;20030;-80
2022/11/26 08:33:28;;;;;;;13.95;6.43;;;;;;;;;;4993620;28;20030;-78
2022/11/26 08:35:54;;;;;;;14.73;6.03;;;;;;;;;;4992834;28;20022;-79
2022/11/26 08:38:19;;;;;;;18.85;6.00;;;;;;;;;;4976901;28;20030;-78
2022/11/26 08:40:45;;;;;;;33.80;8.85;;;;;;;;;;4992270;28;20035;-77
2022/11/26 08:43:10;;;;;;;39.05;8.93;;;;;;;;;;4992060;28;20074;-80
2022/11/26 08:45:35;;;;;;;34.85;9.30;;;;;;;;;;4991904;28;20113;-80
2022/11/26 08:48:01;;;;;;;41.40;9.00;;;;;;;;;;4992439;28;20109;-79
2022/11/26 08:50:26;;;;;;;33.00;9.18;;;;;;;;;;4992730;28;20030;-79
2022/11/26 08:52:51;;;;;;;32.88;8.82;;;;;;;;;;4992133;28;20113;-79
2022/11/26 08:55:17;;;;;;;27.90;8.07;;;;;;;;;;4992466;28;20061;-79
2022/11/26 08:57:42;;;;;;;32.10;9.05;;;;;;;;;;4992470;28;20042;-78
2022/11/26 09:00:08;;;;;;;32.25;8.70;;;;;;;;;;4992591;28;20050;-79
2022/11/26 09:02:33;;;;;;;27.70;8.63;;;;;;;;;;4993753;28;20501;-79
2022/11/26 09:04:59;;;;;;;32.08;9.15;;;;;;;;;;4993819;28;20038;-79
2022/11/26 09:07:24;;;;;;;24.13;8.80;;;;;;;;;;4993228;28;20444;-79
2022/11/26 09:09:49;;;;;;;24.50;8.55;;;;;;;;;;4993572;28;20032;-80
2022/11/26 09:12:15;;;;;;;25.95;7.88;;;;;;;;;;4992196;28;20034;-79
2022/11/26 09:14:40;;;;;;;25.05;8.45;;;;;;;;;;5008355;28;20492;-79
2022/11/26 09:17:06;;;;;;;18.70;7.53;;;;;;;;;;4993145;28;20036;-79
2022/11/26 09:19:32;;;;;;;19.80;7.28;;;;;;;;;;4992879;28;20472;-79
2022/11/26 09:21:58;;;;;;;18.42;6.75;;;;;;;;;;4996876;28;20022;-78
2022/11/26 09:24:24;;;;;;;21.85;6.95;;;;;;;;;;4999381;28;20565;-79
2022/11/26 09:26:50;;;;;;;18.15;7.28;;;;;;;;;;4997519;28;20036;-79
2022/11/26 09:29:18;;;;;;;15.05;6.55;;;;;;;;;;4996854;28;20034;-79
2022/11/26 09:31:44;;;;;;;21.05;6.57;;;;;;;;;;4996550;28;20019;-79
2022/11/26 09:34:10;;;;;;;15.38;6.82;;;;;;;;;;4996497;28;20045;-79
2022/11/26 09:36:35;;;;;;;15.45;5.95;;;;;;;;;;5012985;28;20022;-79
2022/11/26 09:39:01;;;;;;;15.90;5.68;;;;;;;;;;4996584;28;20026;-79
2022/11/26 09:41:33;;;;;;;13.60;6.40;;;;;;;;;;4997209;28;20038;-80
2022/11/26 09:44:04;;;;;;;12.93;6.00;;;;;;;;;;4995743;28;20128;-79
2022/11/26 09:46:39;;;;;;;14.38;5.75;;;;;;;;;;4997995;28;20049;-79
2022/11/26 09:49:05;;;;;;;14.00;5.55;;;;;;;;;;4995430;28;20596;-80
2022/11/26 09:51:32;;;;;;;13.93;6.03;;;;;;;;;;4995339;28;20034;-79
2022/11/26 09:53:59;;;;;;;13.38;5.53;;;;;;;;;;4995124;28;20082;-80
2022/11/26 09:56:26;;;;;;;13.48;5.28;;;;;;;;;;4995385;28;20085;-81
2022/11/26 09:59:00;;;;;;;17.67;5.80;;;;;;;;;;4979314;28;20019;-79
2022/11/26 10:01:26;;;;;;;12.13;4.93;;;;;;;;;;4995236;28;20500;-79
2022/11/26 10:03:52;;;;;;;11.40;5.38;;;;;;;;;;4995048;28;20034;-80
2022/11/26 10:06:30;;;;;;;10.25;4.85;;;;;;;;;;4995349;28;20037;-79
2022/11/26 10:09:35;;;;;;;13.23;4.53;;;;;;;;;;4996890;28;20037;-78
2022/11/26 10:12:29;;;;;;;12.82;4.90;;;;;;;;;;4995524;28;20026;-81
2022/11/26 10:15:15;;;;;;;14.48;4.65;;;;;;;;;;4997183;28;20030;-80
2022/11/26 10:18:05;;;;;;;11.73;5.05;;;;;;;;;;4999504;28;20098;-80
2022/11/26 10:20:49;;;;;;;10.20;4.60;;;;;;;;;;4996897;28;20396;-80
2022/11/26 10:23:47;;;;;;;14.27;4.55;;;;;;;;;;4994618;28;20057;-81
2022/11/26 10:26:17;;;;;;;12.60;4.40;;;;;;;;;;4973110;28;20060;-80
2022/11/26 10:28:45;;;;;;;12.38;4.53;;;;;;;;;;4995288;28;20022;-78
2022/11/26 10:31:18;;;;;;;20.02;4.75;;;;;;;;;;5011615;28;20035;-79
2022/11/26 10:33:56;;;;;;;15.57;4.38;;;;;;;;;;4996477;28;20053;-79
2022/11/26 10:36:24;;;;;;;14.70;4.45;;;;;;;;;;4995186;28;20034;-79
2022/11/26 10:38:51;;;;;;;14.77;5.20;;;;;;;;;;4993916;28;20026;-79
2022/11/26 10:41:17;;;;;;;10.05;4.38;;;;;;;;;;4995703;28;20057;-79
2022/11/26 10:43:42;;;;;;;9.68;4.20;;;;;;;;;;5010484;28;20078;-79
2022/11/26 10:46:08;;;;;;;9.32;4.45;;;;;;;;;;5010562;28;20103;-79
2022/11/26 10:48:34;;;;;;;11.73;5.05;;;;;;;;;;4995274;28;20030;-79
2022/11/26 10:51:05;;;;;;;13.55;4.70;;;;;;;;;;4994527;28;20508;-79
2022/11/26 10:53:54;;;;;;;13.20;4.57;;;;;;;;;;4995513;28;20153;-79
2022/11/26 10:56:23;;;;;;;14.15;4.63;;;;;;;;;;4995360;28;20140;-79
2022/11/26 10:58:50;;;;;;;11.40;4.38;;;;;;;;;;4994488;28;20033;-80
2022/11/26 11:01:15;;;;;;;11.98;4.55;;;;;;;;;;4994419;28;20114;-81
2022/11/26 11:03:49;;;;;;;12.05;4.55;;;;;;;;;;4994339;28;20038;-79
2022/11/26 11:06:17;;;;;;;12.33;3.97;;;;;;;;;;4995901;28;20058;-81
2022/11/26 11:08:42;;;;;;;8.63;4.10;;;;;;;;;;4996046;28;20272;-80
2022/11/26 11:11:18;;;;;;;14.77;4.65;;;;;;;;;;4994520;28;20034;-81
2022/11/26 11:13:46;;;;;;;14.70;4.57;;;;;;;;;;4996209;28;20123;-81
2022/11/26 11:16:12;;;;;;;11.75;4.53;;;;;;;;;;4996003;28;20117;-81
2022/11/26 11:18:46;;;;;;;13.82;4.38;;;;;;;;;;4995294;28;20041;-80
2022/11/26 11:21:15;;;;;;;9.88;4.32;;;;;;;;;;4994934;28;20052;-79
2022/11/26 11:23:40;;;;;;;13.35;4.47;;;;;;;;;;4994952;28;20037;-79
2022/11/26 11:26:14;;;;;;;11.15;4.38;;;;;;;;;;4995267;28;20389;-79
2022/11/26 11:28:46;;;;;;;10.32;3.72;;;;;;;;;;4993619;28;20058;-80
2022/11/26 11:31:20;;;;;;;11.77;4.07;;;;;;;;;;4993913;28;20121;-81
2022/11/26 11:33:46;;;;;;;11.55;4.10;;;;;;;;;;4994888;28;20030;-80
2022/11/26 11:36:14;;;;;;;15.57;4.65;;;;;;;;;;4993621;28;20026;-80
2022/11/26 11:38:58;;;;;;;13.38;4.45;;;;;;;;;;4993352;28;20022;-80
2022/11/26 11:41:30;;;;;;;10.82;4.30;;;;;;;;;;4977506;28;20062;-81
2022/11/26 11:44:21;;;;;;;16.08;3.97;;;;;;;;;;4993616;28;20482;-82
2022/11/26 11:47:01;;;;;;;13.52;3.70;;;;;;;;;;4994469;28;20038;-81
2022/11/26 11:50:04;;;;;;;13.60;4.50;;;;;;;;;;4994901;28;20026;-79
2022/11/26 11:52:43;;;;;;;12.38;3.80;;;;;;;;;;4993132;28;20033;-81
2022/11/26 11:55:27;;;;;;;14.98;4.03;;;;;;;;;;4993153;28;20037;-82
2022/11/26 11:58:17;;;;;;;8.27;3.40;;;;;;;;;;4992921;28;20030;-81
2022/11/26 12:00:48;;;;;;;10.60;3.65;;;;;;;;;;4994383;28;20037;-81
2022/11/26 12:03:22;;;;;;;10.30;3.70;;;;;;;;;;4995112;28;20053;-78
2022/11/26 12:05:57;;;;;;;8.65;3.30;;;;;;;;;;4995266;28;20039;-82
2022/11/26 12:08:45;;;;;;;11.30;3.90;;;;;;;;;;4994484;28;20031;-78
2022/11/26 12:11:36;;;;;;;8.80;3.33;;;;;;;;;;4994169;28;20099;-83
2022/11/26 12:14:12;;;;;;;12.30;3.80;;;;;;;;;;4990015;28;20062;-78
2022/11/26 12:16:41;;;;;;;7.90;3.30;;;;;;;;;;4992636;28;20018;-80
2022/11/26 12:19:31;;;;;;;11.32;3.63;;;;;;;;;;4992579;28;20037;-78
2022/11/26 12:22:02;;;;;;;12.77;4.10;;;;;;;;;;4993159;28;20026;-81
2022/11/26 12:24:57;;;;;;;12.32;3.90;;;;;;;;;;4993386;28;20576;-79
2022/11/26 12:27:49;;;;;;;12.07;3.90;;;;;;;;;;4992695;28;20064;-81
2022/11/26 12:30:17;;;;;;;17.70;3.78;;;;;;;;;;4992841;28;20188;-78
2022/11/26 12:33:11;;;;;;;15.68;4.45;;;;;;;;;;4993229;28;20023;-78
2022/11/26 12:35:52;;;;;;;10.13;3.53;;;;;;;;;;4993681;28;20496;-79
2022/11/26 12:38:27;;;;;;;16.23;3.80;;;;;;;;;;4976661;28;20026;-78
2022/11/26 12:41:16;;;;;;;14.98;4.25;;;;;;;;;;4976848;28;20022;-78
2022/11/26 12:43:48;;;;;;;19.95;4.63;;;;;;;;;;4993217;28;20093;-79
2022/11/26 12:46:27;;;;;;;13.63;4.15;;;;;;;;;;5009447;28;20069;-78
2022/11/26 12:48:58;;;;;;;11.55;4.15;;;;;;;;;;4992625;28;20041;-82
2022/11/26 12:51:33;;;;;;;17.05;4.22;;;;;;;;;;4992982;28;20041;-81
2022/11/26 12:54:20;;;;;;;13.25;3.78;;;;;;;;;;4992522;28;20022;-81
2022/11/26 12:57:31;;;;;;;15.68;3.70;;;;;;;;;;4992738;28;20103;-81
2022/11/26 12:59:57;;;;;;;11.27;3.85;;;;;;;;;;4990908;28;20065;-80
2022/11/26 13:02:25;;;;;;;15.50;4.35;;;;;;;;;;4993837;28;20061;-81
2022/11/26 13:04:51;;;;;;;12.98;3.78;;;;;;;;;;5009295;28;20045;-81
2022/11/26 13:07:46;;;;;;;10.90;3.13;;;;;;;;;;4992740;28;20126;-80
2022/11/26 13:10:35;;;;;;;11.07;3.65;;;;;;;;;;4994119;28;20030;-80
2022/11/26 13:13:24;;;;;;;11.20;3.80;;;;;;;;;;4992931;28;20077;-80
2022/11/26 13:16:13;;;;;;;12.07;3.33;;;;;;;;;;5028162;28;20081;-81
2022/11/26 13:18:50;;;;;;;9.63;3.33;;;;;;;;;;5012734;28;20026;-81
2022/11/26 13:21:53;;;;;;;12.93;3.60;;;;;;;;;;5012496;28;20038;-80
2022/11/26 13:24:38;;;;;;;10.93;3.63;;;;;;;;;;5012651;28;20026;-83
2022/11/26 13:27:10;;;;;;;;;;;;;;;;;;5014136;28;20481;-77
2022/11/26 13:29:44;;;;;;;9.43;3.40;;;;;;;;;;5012465;28;20368;-78
2022/11/26 13:32:16;;;;;;;13.80;4.18;;;;;;;;;;5012885;28;20061;-80
2022/11/26 13:35:00;;;;;;;17.88;3.75;;;;;;;;;;5012253;28;20030;-79
2022/11/26 13:37:41;;;;;;;17.88;3.83;;;;;;;;;;5014181;28;20025;-80
2022/11/26 13:40:41;;;;;;;14.30;3.80;;;;;;;;;;5012095;28;20033;-78
2022/11/26 13:43:15;;;;;;;18.00;4.18;;;;;;;;;;5028437;28;20484;-80
2022/11/26 13:46:20;;;;;;;10.88;3.45;;;;;;;;;;5012370;28;20140;-79
2022/11/26 13:48:54;;;;;;;9.38;3.00;;;;;;;;;;4995734;28;20036;-81
2022/11/26 13:51:33;;;;;;;8.98;3.33;;;;;;;;;;5013191;28;20021;-80
2022/11/26 13:54:07;;;;;;;16.42;3.75;;;;;;;;;;5012120;28;20034;-80
2022/11/26 13:56:34;;;;;;;21.70;3.30;;;;;;;;;;5012179;28;20388;-80
2022/11/26 13:59:05;;;;;;;12.27;2.80;;;;;;;;;;5013453;28;20469;-80
2022/11/26 14:01:35;;;;;;;10.70;3.00;;;;;;;;;;5011978;28;20036;-80
2022/11/26 14:04:02;;;;;;;6.32;3.03;;;;;;;;;;5012412;28;20503;-80
2022/11/26 14:06:27;;;;;;;7.32;2.58;;;;;;;;;;5012059;28;20656;-80
2022/11/26 14:08:54;;;;;;;10.70;3.28;;;;;;;;;;5012240;28;20112;-80
2022/11/26 14:11:44;;;;;;;7.65;2.90;;;;;;;;;;5011911;28;20477;-79
2022/11/26 14:14:24;;;;;;;5.43;2.63;;;;;;;;;;5012829;28;20029;-79
2022/11/26 14:16:59;;;;;;;7.47;2.97;;;;;;;;;;5016689;28;20030;-80
2022/11/26 14:19:48;;;;;;;5.72;2.63;;;;;;;;;;5017020;28;20026;-80
2022/11/26 14:22:19;;;;;;;7.18;2.80;;;;;;;;;;5003719;28;20112;-81
2022/11/26 14:24:50;;;;;;;14.25;3.90;;;;;;;;;;5017231;28;20026;-81
2022/11/26 14:27:16;;;;;;;10.65;3.08;;;;;;;;;;5017081;28;20061;-81
2022/11/26 14:29:43;;;;;;;9.80;2.95;;;;;;;;;;5018477;28;20022;-82
2022/11/26 14:32:15;;;;;;;10.10;3.28;;;;;;;;;;5024864;28;20084;-80
2022/11/26 14:34:46;;;;;;;10.55;3.20;;;;;;;;;;5021091;28;20068;-81
2022/11/26 14:37:13;;;;;;;10.77;3.15;;;;;;;;;;5016990;28;20049;-81
2022/11/26 14:39:39;;;;;;;8.82;2.95;;;;;;;;;;5017424;28;20116;-81
2022/11/26 14:42:04;;;;;;;11.38;3.45;;;;;;;;;;5017665;28;20064;-81
2022/11/26 14:44:30;;;;;;;7.82;2.80;;;;;;;;;;5017352;28;20061;-81
2022/11/26 14:46:58;;;;;;;8.73;2.90;;;;;;;;;;5018258;28;20117;-81
2022/11/26 14:49:30;;;;;;;10.02;3.40;;;;;;;;;;5017603;28;20071;-81
2022/11/26 14:51:56;;;;;;;12.05;3.30;;;;;;;;;;5017067;28;20112;-80
2022/11/26 14:54:28;;;;;;;7.10;2.95;;;;;;;;;;5016274;28;20052;-80
2022/11/26 14:56:56;;;;;;;16.35;3.65;;;;;;;;;;5016944;28;20057;-80